sensor_id;sensor_type;location;lat;lon;timestamp;temperature;humidity
51655;DHT22;37732;53.106;7.030;2023-03-30T00:01:33;10.50;99.90
51655;DHT22;37732;53.106;7.030;2023-03-30T00:03:59;10.50;99.90
51655;DHT22;37732;53.106;7.030;2023-03-30T00:06:25;10.50;99.90
51655;DHT22;37732;53.106;7.030;2023-03-30T00:08:52;10.60;99.90
51655;DHT22;37732;53.106;7.030;2023-03-30T00:11:22;10.60;99.90
51655;DHT22;37732;53.106;7.030;2023-03-30T00:13:48;10.60;99.90
51655;DHT22;37732;53.106;7.030;2023-03-30T00:16:15;10.60;99.90
51655;DHT22;37732;53.106;7.030;2023-03-30T00:18:42;10.60;99.90
51655;DHT22;37732;53.106;7.030;2023-03-30T00:21:10;10.50;99.90
51655;DHT22;37732;53.106;7.030;2023-03-30T00:23:36;10.50;99.90
51655;DHT22;37732;53.106;7.030;2023-03-30T00:26:02;10.60;99.90
51655;DHT22;37732;53.106;7.030;2023-03-30T00:28:28;10.60;99.90
51655;DHT22;37732;53.106;7.030;2023-03-30T00:30:55;10.60;99.90
51655;DHT22;37732;53.106;7.030;2023-03-30T00:33:21;10.60;99.90
51655;DHT22;37732;53.106;7.030;2023-03-30T00:35:55;10.60;99.90
51655;DHT22;37732;53.106;7.030;2023-03-30T00:38:21;10.70;99.90
51655;DHT22;37732;53.106;7.030;2023-03-30T00:40:51;10.60;99.90
51655;DHT22;37732;53.106;7.030;2023-03-30T00:43:18;10.60;99.90
51655;DHT22;37732;53.106;7.030;2023-03-30T00:45:43;10.70;99.90
51655;DHT22;37732;53.106;7.030;2023-03-30T00:53:22;10.70;99.90
51655;DHT22;37732;53.106;7.030;2023-03-30T00:55:49;10.70;99.90
51655;DHT22;37732;53.106;7.030;2023-03-30T00:58:17;10.70;99.90
51655;DHT22;37732;53.106;7.030;2023-03-30T01:03:29;10.60;99.90
51655;DHT22;37732;53.106;7.030;2023-03-30T01:05:58;10.60;99.90
51655;DHT22;37732;53.106;7.030;2023-03-30T01:08:26;10.60;99.90
51655;DHT22;37732;53.106;7.030;2023-03-30T01:11:04;10.60;99.90
51655;DHT22;37732;53.106;7.030;2023-03-30T01:13:47;10.60;99.90
51655;DHT22;37732;53.106;7.030;2023-03-30T01:24:26;10.40;99.90
51655;DHT22;37732;53.106;7.030;2023-03-30T01:27:03;10.50;99.90
51655;DHT22;37732;53.106;7.030;2023-03-30T01:44:02;10.60;99.90
51655;DHT22;37732;53.106;7.030;2023-03-30T01:46:37;10.60;99.90
51655;DHT22;37732;53.106;7.030;2023-03-30T01:54:47;10.70;99.90
51655;DHT22;37732;53.106;7.030;2023-03-30T01:57:25;10.70;99.90
51655;DHT22;37732;53.106;7.030;2023-03-30T01:59:56;10.80;99.90
51655;DHT22;37732;53.106;7.030;2023-03-30T02:02:26;10.80;99.90
51655;DHT22;37732;53.106;7.030;2023-03-30T02:04:53;10.80;99.90
51655;DHT22;37732;53.106;7.030;2023-03-30T02:07:24;10.80;99.90
51655;DHT22;37732;53.106;7.030;2023-03-30T02:09:55;10.80;99.90
51655;DHT22;37732;53.106;7.030;2023-03-30T02:12:24;10.80;99.90
51655;DHT22;37732;53.106;7.030;2023-03-30T02:14:50;10.80;99.90
51655;DHT22;37732;53.106;7.030;2023-03-30T02:17:20;11.00;99.90
51655;DHT22;37732;53.106;7.030;2023-03-30T02:19:47;10.90;99.90
51655;DHT22;37732;53.106;7.030;2023-03-30T02:22:15;10.90;99.90
51655;DHT22;37732;53.106;7.030;2023-03-30T02:24:44;10.90;99.90
51655;DHT22;37732;53.106;7.030;2023-03-30T02:27:11;11.00;99.90
51655;DHT22;37732;53.106;7.030;2023-03-30T02:29:40;11.00;99.90
51655;DHT22;37732;53.106;7.030;2023-03-30T02:32:14;11.00;99.90
51655;DHT22;37732;53.106;7.030;2023-03-30T02:43:39;11.20;99.90
51655;DHT22;37732;53.106;7.030;2023-03-30T02:56:54;11.20;99.90
51655;DHT22;37732;53.106;7.030;2023-03-30T02:59:29;11.20;99.90
51655;DHT22;37732;53.106;7.030;2023-03-30T03:02:03;11.30;99.90
51655;DHT22;37732;53.106;7.030;2023-03-30T03:04:31;11.30;99.90
51655;DHT22;37732;53.106;7.030;2023-03-30T03:06:59;11.30;99.90
51655;DHT22;37732;53.106;7.030;2023-03-30T03:09:27;11.30;99.90
51655;DHT22;37732;53.106;7.030;2023-03-30T03:11:54;11.30;99.90
51655;DHT22;37732;53.106;7.030;2023-03-30T03:14:19;11.30;99.90
51655;DHT22;37732;53.106;7.030;2023-03-30T03:16:46;11.40;99.90
51655;DHT22;37732;53.106;7.030;2023-03-30T03:19:12;11.40;99.90
51655;DHT22;37732;53.106;7.030;2023-03-30T03:21:37;11.40;99.90
51655;DHT22;37732;53.106;7.030;2023-03-30T03:24:04;11.50;99.90
51655;DHT22;37732;53.106;7.030;2023-03-30T03:26:31;11.40;99.90
51655;DHT22;37732;53.106;7.030;2023-03-30T03:28:56;11.40;99.90
51655;DHT22;37732;53.106;7.030;2023-03-30T03:31:22;11.40;99.90
51655;DHT22;37732;53.106;7.030;2023-03-30T03:33:48;11.30;99.90
51655;DHT22;37732;53.106;7.030;2023-03-30T03:36:15;11.30;99.90
51655;DHT22;37732;53.106;7.030;2023-03-30T03:38:41;11.30;99.90
51655;DHT22;37732;53.106;7.030;2023-03-30T03:41:07;11.30;99.90
51655;DHT22;37732;53.106;7.030;2023-03-30T03:43:35;11.20;99.90
51655;DHT22;37732;53.106;7.030;2023-03-30T03:46:01;11.20;99.90
51655;DHT22;37732;53.106;7.030;2023-03-30T03:48:26;11.10;99.90
51655;DHT22;37732;53.106;7.030;2023-03-30T03:50:56;11.10;99.90
51655;DHT22;37732;53.106;7.030;2023-03-30T03:53:24;11.10;99.90
51655;DHT22;37732;53.106;7.030;2023-03-30T03:55:50;11.00;99.90
51655;DHT22;37732;53.106;7.030;2023-03-30T03:58:16;11.00;99.90
51655;DHT22;37732;53.106;7.030;2023-03-30T04:00:42;11.10;99.90
51655;DHT22;37732;53.106;7.030;2023-03-30T04:03:10;11.00;99.90
51655;DHT22;37732;53.106;7.030;2023-03-30T04:05:37;11.10;99.90
51655;DHT22;37732;53.106;7.030;2023-03-30T04:08:03;11.10;99.90
51655;DHT22;37732;53.106;7.030;2023-03-30T04:10:30;11.10;99.90
51655;DHT22;37732;53.106;7.030;2023-03-30T04:12:56;11.10;99.90
51655;DHT22;37732;53.106;7.030;2023-03-30T04:15:24;11.10;99.90
51655;DHT22;37732;53.106;7.030;2023-03-30T04:17:49;11.10;99.90
51655;DHT22;37732;53.106;7.030;2023-03-30T04:20:23;11.10;99.90
51655;DHT22;37732;53.106;7.030;2023-03-30T04:22:49;11.10;99.90
51655;DHT22;37732;53.106;7.030;2023-03-30T04:25:18;11.10;99.90
51655;DHT22;37732;53.106;7.030;2023-03-30T04:27:49;11.10;99.90
51655;DHT22;37732;53.106;7.030;2023-03-30T04:30:16;11.10;99.90
51655;DHT22;37732;53.106;7.030;2023-03-30T04:32:43;11.10;99.90
51655;DHT22;37732;53.106;7.030;2023-03-30T04:35:11;11.10;99.90
51655;DHT22;37732;53.106;7.030;2023-03-30T04:37:36;11.10;99.90
51655;DHT22;37732;53.106;7.030;2023-03-30T04:40:03;11.10;99.90
51655;DHT22;37732;53.106;7.030;2023-03-30T04:42:36;11.10;99.90
51655;DHT22;37732;53.106;7.030;2023-03-30T04:45:05;11.10;99.90
51655;DHT22;37732;53.106;7.030;2023-03-30T04:47:32;11.10;99.90
51655;DHT22;37732;53.106;7.030;2023-03-30T04:49:58;11.10;99.90
51655;DHT22;37732;53.106;7.030;2023-03-30T04:52:24;11.10;99.90
51655;DHT22;37732;53.106;7.030;2023-03-30T04:54:50;11.10;99.90
51655;DHT22;37732;53.106;7.030;2023-03-30T04:57:15;11.10;99.90
51655;DHT22;37732;53.106;7.030;2023-03-30T04:59:42;11.10;99.90
51655;DHT22;37732;53.106;7.030;2023-03-30T05:02:09;11.10;99.90
51655;DHT22;37732;53.106;7.030;2023-03-30T05:04:36;11.20;99.90
51655;DHT22;37732;53.106;7.030;2023-03-30T05:07:03;11.20;99.90
51655;DHT22;37732;53.106;7.030;2023-03-30T05:09:29;11.30;99.90
51655;DHT22;37732;53.106;7.030;2023-03-30T05:11:55;11.30;99.90
51655;DHT22;37732;53.106;7.030;2023-03-30T05:14:21;11.40;99.90
51655;DHT22;37732;53.106;7.030;2023-03-30T05:16:46;11.40;99.90
51655;DHT22;37732;53.106;7.030;2023-03-30T05:19:12;11.40;99.90
51655;DHT22;37732;53.106;7.030;2023-03-30T05:21:38;11.40;99.90
51655;DHT22;37732;53.106;7.030;2023-03-30T05:24:04;11.50;99.90
51655;DHT22;37732;53.106;7.030;2023-03-30T05:26:30;11.50;99.90
51655;DHT22;37732;53.106;7.030;2023-03-30T05:28:56;11.50;99.90
51655;DHT22;37732;53.106;7.030;2023-03-30T05:31:22;11.50;99.90
51655;DHT22;37732;53.106;7.030;2023-03-30T05:33:47;11.50;99.90
51655;DHT22;37732;53.106;7.030;2023-03-30T05:36:13;11.60;99.90
51655;DHT22;37732;53.106;7.030;2023-03-30T05:38:39;11.50;99.90
51655;DHT22;37732;53.106;7.030;2023-03-30T05:41:05;11.60;99.90
51655;DHT22;37732;53.106;7.030;2023-03-30T05:43:35;11.50;99.90
51655;DHT22;37732;53.106;7.030;2023-03-30T05:46:01;11.50;99.90
51655;DHT22;37732;53.106;7.030;2023-03-30T05:48:28;11.50;99.90
51655;DHT22;37732;53.106;7.030;2023-03-30T05:50:54;11.40;99.90
51655;DHT22;37732;53.106;7.030;2023-03-30T05:53:20;11.50;99.90
51655;DHT22;37732;53.106;7.030;2023-03-30T05:55:47;11.50;99.90
51655;DHT22;37732;53.106;7.030;2023-03-30T05:58:13;10.90;99.90
51655;DHT22;37732;53.106;7.030;2023-03-30T06:00:39;11.50;99.90
51655;DHT22;37732;53.106;7.030;2023-03-30T06:03:12;11.50;99.90
51655;DHT22;37732;53.106;7.030;2023-03-30T06:05:38;11.40;99.90
51655;DHT22;37732;53.106;7.030;2023-03-30T06:08:07;11.40;99.90
51655;DHT22;37732;53.106;7.030;2023-03-30T06:10:34;11.40;99.90
51655;DHT22;37732;53.106;7.030;2023-03-30T06:13:00;11.30;99.90
51655;DHT22;37732;53.106;7.030;2023-03-30T06:15:26;11.30;99.90
51655;DHT22;37732;53.106;7.030;2023-03-30T06:17:52;11.30;99.90
51655;DHT22;37732;53.106;7.030;2023-03-30T06:20:18;11.40;99.90
51655;DHT22;37732;53.106;7.030;2023-03-30T06:22:46;11.40;99.90
51655;DHT22;37732;53.106;7.030;2023-03-30T06:25:12;11.40;99.90
51655;DHT22;37732;53.106;7.030;2023-03-30T06:27:38;11.40;99.90
51655;DHT22;37732;53.106;7.030;2023-03-30T06:30:04;11.50;99.90
51655;DHT22;37732;53.106;7.030;2023-03-30T06:32:30;11.50;99.90
51655;DHT22;37732;53.106;7.030;2023-03-30T06:34:56;11.50;99.90
51655;DHT22;37732;53.106;7.030;2023-03-30T06:37:25;11.60;99.90
51655;DHT22;37732;53.106;7.030;2023-03-30T06:39:51;11.60;99.90
51655;DHT22;37732;53.106;7.030;2023-03-30T06:42:17;11.60;99.90
51655;DHT22;37732;53.106;7.030;2023-03-30T06:44:44;11.60;99.90
51655;DHT22;37732;53.106;7.030;2023-03-30T06:47:10;11.70;99.90
51655;DHT22;37732;53.106;7.030;2023-03-30T06:49:35;11.70;99.90
51655;DHT22;37732;53.106;7.030;2023-03-30T06:52:01;11.80;99.90
51655;DHT22;37732;53.106;7.030;2023-03-30T06:54:27;11.80;99.90
51655;DHT22;37732;53.106;7.030;2023-03-30T06:56:52;11.80;99.90
51655;DHT22;37732;53.106;7.030;2023-03-30T06:59:18;11.80;99.90
51655;DHT22;37732;53.106;7.030;2023-03-30T07:01:44;11.80;99.90
51655;DHT22;37732;53.106;7.030;2023-03-30T07:04:13;11.80;99.90
51655;DHT22;37732;53.106;7.030;2023-03-30T07:06:38;11.70;99.90
51655;DHT22;37732;53.106;7.030;2023-03-30T07:09:04;11.70;99.90
51655;DHT22;37732;53.106;7.030;2023-03-30T07:11:31;11.80;99.90
51655;DHT22;37732;53.106;7.030;2023-03-30T07:13:57;11.90;99.90
51655;DHT22;37732;53.106;7.030;2023-03-30T07:16:24;12.00;99.90
51655;DHT22;37732;53.106;7.030;2023-03-30T07:18:50;12.10;99.90
51655;DHT22;37732;53.106;7.030;2023-03-30T07:21:17;12.10;99.90
51655;DHT22;37732;53.106;7.030;2023-03-30T07:23:43;12.20;99.90
51655;DHT22;37732;53.106;7.030;2023-03-30T07:26:09;12.10;99.90
51655;DHT22;37732;53.106;7.030;2023-03-30T07:28:35;12.10;99.90
51655;DHT22;37732;53.106;7.030;2023-03-30T07:31:09;12.10;99.90
51655;DHT22;37732;53.106;7.030;2023-03-30T07:33:38;12.20;99.90
51655;DHT22;37732;53.106;7.030;2023-03-30T07:36:04;12.20;99.90
51655;DHT22;37732;53.106;7.030;2023-03-30T07:38:30;12.30;99.90
51655;DHT22;37732;53.106;7.030;2023-03-30T07:40:56;12.30;99.90
51655;DHT22;37732;53.106;7.030;2023-03-30T07:43:21;12.30;99.90
51655;DHT22;37732;53.106;7.030;2023-03-30T07:45:47;12.30;99.90
51655;DHT22;37732;53.106;7.030;2023-03-30T07:48:12;12.30;99.90
51655;DHT22;37732;53.106;7.030;2023-03-30T07:50:38;12.30;99.90
51655;DHT22;37732;53.106;7.030;2023-03-30T07:53:04;12.30;99.90
51655;DHT22;37732;53.106;7.030;2023-03-30T07:55:30;12.30;99.90
51655;DHT22;37732;53.106;7.030;2023-03-30T07:57:56;12.40;99.90
51655;DHT22;37732;53.106;7.030;2023-03-30T08:00:23;12.40;99.90
51655;DHT22;37732;53.106;7.030;2023-03-30T08:02:49;12.40;99.90
51655;DHT22;37732;53.106;7.030;2023-03-30T08:05:15;12.40;99.90
51655;DHT22;37732;53.106;7.030;2023-03-30T08:07:42;12.50;99.90
51655;DHT22;37732;53.106;7.030;2023-03-30T08:10:09;12.50;99.90
51655;DHT22;37732;53.106;7.030;2023-03-30T08:12:35;12.50;99.90
51655;DHT22;37732;53.106;7.030;2023-03-30T08:15:01;12.50;99.90
51655;DHT22;37732;53.106;7.030;2023-03-30T08:17:27;12.50;99.90
51655;DHT22;37732;53.106;7.030;2023-03-30T08:19:53;12.50;99.90
51655;DHT22;37732;53.106;7.030;2023-03-30T08:22:20;12.50;99.90
51655;DHT22;37732;53.106;7.030;2023-03-30T08:24:46;12.40;99.90
51655;DHT22;37732;53.106;7.030;2023-03-30T08:27:12;12.40;99.90
51655;DHT22;37732;53.106;7.030;2023-03-30T08:29:38;12.40;99.90
51655;DHT22;37732;53.106;7.030;2023-03-30T08:32:04;12.40;99.90
51655;DHT22;37732;53.106;7.030;2023-03-30T08:34:30;12.40;99.90
51655;DHT22;37732;53.106;7.030;2023-03-30T08:36:55;12.40;99.90
51655;DHT22;37732;53.106;7.030;2023-03-30T08:39:23;12.40;99.90
51655;DHT22;37732;53.106;7.030;2023-03-30T08:47:13;12.50;99.90
51655;DHT22;37732;53.106;7.030;2023-03-30T08:49:52;12.50;99.90
51655;DHT22;37732;53.106;7.030;2023-03-30T08:52:22;12.50;99.90
51655;DHT22;37732;53.106;7.030;2023-03-30T08:54:50;12.40;99.90
51655;DHT22;37732;53.106;7.030;2023-03-30T09:06:02;12.20;99.90
51655;DHT22;37732;53.106;7.030;2023-03-30T09:08:32;12.20;99.90
51655;DHT22;37732;53.106;7.030;2023-03-30T09:11:00;12.20;99.90
51655;DHT22;37732;53.106;7.030;2023-03-30T09:13:31;12.20;99.90
51655;DHT22;37732;53.106;7.030;2023-03-30T09:16:25;12.10;99.90
51655;DHT22;37732;53.106;7.030;2023-03-30T09:18:53;12.10;99.90
51655;DHT22;37732;53.106;7.030;2023-03-30T09:21:22;12.10;99.90
51655;DHT22;37732;53.106;7.030;2023-03-30T09:23:49;12.10;99.90
51655;DHT22;37732;53.106;7.030;2023-03-30T09:32:02;12.30;99.90
51655;DHT22;37732;53.106;7.030;2023-03-30T09:37:12;12.40;99.90
51655;DHT22;37732;53.106;7.030;2023-03-30T09:39:38;12.60;99.90
51655;DHT22;37732;53.106;7.030;2023-03-30T09:47:30;13.20;99.90
51655;DHT22;37732;53.106;7.030;2023-03-30T09:50:04;13.20;99.90
51655;DHT22;37732;53.106;7.030;2023-03-30T09:52:33;13.40;99.90
51655;DHT22;37732;53.106;7.030;2023-03-30T09:55:27;13.40;99.90
51655;DHT22;37732;53.106;7.030;2023-03-30T10:01:10;13.60;99.90
51655;DHT22;37732;53.106;7.030;2023-03-30T10:03:40;13.80;99.90
51655;DHT22;37732;53.106;7.030;2023-03-30T10:06:17;13.60;99.90
51655;DHT22;37732;53.106;7.030;2023-03-30T10:08:51;13.50;99.90
51655;DHT22;37732;53.106;7.030;2023-03-30T10:11:21;13.50;99.90
51655;DHT22;37732;53.106;7.030;2023-03-30T10:13:56;13.40;99.90
51655;DHT22;37732;53.106;7.030;2023-03-30T10:16:25;13.30;99.90
51655;DHT22;37732;53.106;7.030;2023-03-30T10:18:53;13.30;99.90
51655;DHT22;37732;53.106;7.030;2023-03-30T10:21:22;13.30;99.90
51655;DHT22;37732;53.106;7.030;2023-03-30T10:24:06;13.30;99.90
51655;DHT22;37732;53.106;7.030;2023-03-30T10:26:36;13.30;99.90
51655;DHT22;37732;53.106;7.030;2023-03-30T10:29:06;13.20;99.90
51655;DHT22;37732;53.106;7.030;2023-03-30T10:31:37;13.20;99.90
51655;DHT22;37732;53.106;7.030;2023-03-30T10:34:14;13.20;99.90
51655;DHT22;37732;53.106;7.030;2023-03-30T10:36:41;13.20;99.90
51655;DHT22;37732;53.106;7.030;2023-03-30T10:39:10;13.20;99.90
51655;DHT22;37732;53.106;7.030;2023-03-30T10:41:38;13.30;99.90
51655;DHT22;37732;53.106;7.030;2023-03-30T10:46:50;13.40;99.90
51655;DHT22;37732;53.106;7.030;2023-03-30T10:52:26;13.30;99.90
51655;DHT22;37732;53.106;7.030;2023-03-30T10:55:14;13.30;99.90
51655;DHT22;37732;53.106;7.030;2023-03-30T10:58:01;13.20;99.90
51655;DHT22;37732;53.106;7.030;2023-03-30T11:03:28;13.20;99.90
51655;DHT22;37732;53.106;7.030;2023-03-30T11:06:05;13.20;99.90
51655;DHT22;37732;53.106;7.030;2023-03-30T11:08:36;13.20;99.90
51655;DHT22;37732;53.106;7.030;2023-03-30T11:11:04;13.10;99.90
51655;DHT22;37732;53.106;7.030;2023-03-30T11:13:41;13.10;99.90
51655;DHT22;37732;53.106;7.030;2023-03-30T11:16:18;13.20;99.90
51655;DHT22;37732;53.106;7.030;2023-03-30T11:19:06;13.20;99.90
51655;DHT22;37732;53.106;7.030;2023-03-30T11:21:52;13.20;99.90
51655;DHT22;37732;53.106;7.030;2023-03-30T11:24:23;13.10;99.90
51655;DHT22;37732;53.106;7.030;2023-03-30T11:30:27;13.10;99.90
51655;DHT22;37732;53.106;7.030;2023-03-30T11:33:33;13.10;99.90
51655;DHT22;37732;53.106;7.030;2023-03-30T11:36:12;13.10;99.90
51655;DHT22;37732;53.106;7.030;2023-03-30T11:39:02;13.20;99.90
51655;DHT22;37732;53.106;7.030;2023-03-30T11:41:44;13.20;99.90
51655;DHT22;37732;53.106;7.030;2023-03-30T11:44:12;13.20;99.90
51655;DHT22;37732;53.106;7.030;2023-03-30T11:46:57;13.30;99.90
51655;DHT22;37732;53.106;7.030;2023-03-30T11:52:18;13.40;99.90
51655;DHT22;37732;53.106;7.030;2023-03-30T11:55:10;13.60;99.90
51655;DHT22;37732;53.106;7.030;2023-03-30T12:00:38;13.90;99.90
51655;DHT22;37732;53.106;7.030;2023-03-30T12:14:00;14.10;99.90
51655;DHT22;37732;53.106;7.030;2023-03-30T12:16:43;14.10;99.90
51655;DHT22;37732;53.106;7.030;2023-03-30T12:19:15;14.10;99.90
51655;DHT22;37732;53.106;7.030;2023-03-30T12:24:32;14.10;99.90
51655;DHT22;37732;53.106;7.030;2023-03-30T12:26:58;14.00;99.90
51655;DHT22;37732;53.106;7.030;2023-03-30T12:29:46;13.90;99.90
51655;DHT22;37732;53.106;7.030;2023-03-30T12:34:44;13.80;99.90
51655;DHT22;37732;53.106;7.030;2023-03-30T12:37:22;13.70;99.90
51655;DHT22;37732;53.106;7.030;2023-03-30T12:40:13;13.80;99.90
51655;DHT22;37732;53.106;7.030;2023-03-30T12:43:11;13.80;99.90
51655;DHT22;37732;53.106;7.030;2023-03-30T12:46:10;13.90;99.90
51655;DHT22;37732;53.106;7.030;2023-03-30T12:54:25;14.40;99.90
51655;DHT22;37732;53.106;7.030;2023-03-30T12:59:58;14.40;99.90
51655;DHT22;37732;53.106;7.030;2023-03-30T13:02:47;14.50;99.90
51655;DHT22;37732;53.106;7.030;2023-03-30T13:05:30;14.50;99.90
51655;DHT22;37732;53.106;7.030;2023-03-30T13:08:05;14.30;99.90
51655;DHT22;37732;53.106;7.030;2023-03-30T13:10:36;14.40;99.90
51655;DHT22;37732;53.106;7.030;2023-03-30T13:13:04;14.60;99.90
51655;DHT22;37732;53.106;7.030;2023-03-30T13:17:58;14.70;99.90
51655;DHT22;37732;53.106;7.030;2023-03-30T13:20:31;14.60;99.90
51655;DHT22;37732;53.106;7.030;2023-03-30T13:26:01;14.80;99.90
51655;DHT22;37732;53.106;7.030;2023-03-30T13:33:54;15.20;99.90
51655;DHT22;37732;53.106;7.030;2023-03-30T13:36:29;15.30;99.90
51655;DHT22;37732;53.106;7.030;2023-03-30T13:47:41;15.30;99.90
51655;DHT22;37732;53.106;7.030;2023-03-30T13:50:25;15.30;99.90
51655;DHT22;37732;53.106;7.030;2023-03-30T13:52:53;15.10;99.90
51655;DHT22;37732;53.106;7.030;2023-03-30T13:57:50;14.90;99.90
51655;DHT22;37732;53.106;7.030;2023-03-30T14:03:34;15.10;99.90
51655;DHT22;37732;53.106;7.030;2023-03-30T14:08:43;15.30;99.90
51655;DHT22;37732;53.106;7.030;2023-03-30T14:16:48;15.20;99.90
51655;DHT22;37732;53.106;7.030;2023-03-30T14:19:24;15.40;99.90
51655;DHT22;37732;53.106;7.030;2023-03-30T14:22:19;15.50;99.90
51655;DHT22;37732;53.106;7.030;2023-03-30T14:24:57;15.50;99.90
51655;DHT22;37732;53.106;7.030;2023-03-30T14:27:23;15.50;99.90
51655;DHT22;37732;53.106;7.030;2023-03-30T14:29:50;15.40;99.90
51655;DHT22;37732;53.106;7.030;2023-03-30T14:32:18;15.40;99.90
51655;DHT22;37732;53.106;7.030;2023-03-30T14:34:49;15.20;99.90
51655;DHT22;37732;53.106;7.030;2023-03-30T14:37:15;15.20;99.90
51655;DHT22;37732;53.106;7.030;2023-03-30T14:39:48;15.10;99.90
51655;DHT22;37732;53.106;7.030;2023-03-30T14:42:17;14.80;99.90
51655;DHT22;37732;53.106;7.030;2023-03-30T14:44:45;14.70;99.90
51655;DHT22;37732;53.106;7.030;2023-03-30T14:47:12;14.80;99.90
51655;DHT22;37732;53.106;7.030;2023-03-30T14:49:40;14.90;99.90
51655;DHT22;37732;53.106;7.030;2023-03-30T14:52:19;14.90;99.90
51655;DHT22;37732;53.106;7.030;2023-03-30T14:54:47;15.00;99.90
51655;DHT22;37732;53.106;7.030;2023-03-30T14:57:16;15.00;99.90
51655;DHT22;37732;53.106;7.030;2023-03-30T14:59:53;15.00;99.90
51655;DHT22;37732;53.106;7.030;2023-03-30T15:02:23;15.10;99.90
51655;DHT22;37732;53.106;7.030;2023-03-30T15:04:51;15.20;99.90
51655;DHT22;37732;53.106;7.030;2023-03-30T15:07:18;15.10;99.90
51655;DHT22;37732;53.106;7.030;2023-03-30T15:09:45;15.00;99.90
51655;DHT22;37732;53.106;7.030;2023-03-30T15:12:20;14.90;99.90
51655;DHT22;37732;53.106;7.030;2023-03-30T15:14:48;14.80;99.90
51655;DHT22;37732;53.106;7.030;2023-03-30T15:17:19;14.70;99.90
51655;DHT22;37732;53.106;7.030;2023-03-30T15:19:48;14.70;99.90
51655;DHT22;37732;53.106;7.030;2023-03-30T15:24:47;14.70;99.90
51655;DHT22;37732;53.106;7.030;2023-03-30T15:27:13;14.60;99.90
51655;DHT22;37732;53.106;7.030;2023-03-30T15:29:40;14.50;99.90
51655;DHT22;37732;53.106;7.030;2023-03-30T15:32:18;14.40;99.90
51655;DHT22;37732;53.106;7.030;2023-03-30T15:35:24;14.50;99.90
51655;DHT22;37732;53.106;7.030;2023-03-30T15:38:02;14.60;99.90
51655;DHT22;37732;53.106;7.030;2023-03-30T15:40:36;14.60;99.90
51655;DHT22;37732;53.106;7.030;2023-03-30T15:43:21;14.60;99.90
51655;DHT22;37732;53.106;7.030;2023-03-30T15:45:56;14.50;99.90
51655;DHT22;37732;53.106;7.030;2023-03-30T15:51:10;14.20;99.90
51655;DHT22;37732;53.106;7.030;2023-03-30T15:53:45;14.10;99.90
51655;DHT22;37732;53.106;7.030;2023-03-30T15:56:39;14.10;99.90
51655;DHT22;37732;53.106;7.030;2023-03-30T15:59:04;14.10;99.90
51655;DHT22;37732;53.106;7.030;2023-03-30T16:04:18;14.10;99.90
51655;DHT22;37732;53.106;7.030;2023-03-30T16:06:45;14.00;99.90
51655;DHT22;37732;53.106;7.030;2023-03-30T16:09:10;14.00;99.90
51655;DHT22;37732;53.106;7.030;2023-03-30T16:11:37;14.00;99.90
51655;DHT22;37732;53.106;7.030;2023-03-30T16:14:09;13.90;99.90
51655;DHT22;37732;53.106;7.030;2023-03-30T16:16:36;13.90;99.90
51655;DHT22;37732;53.106;7.030;2023-03-30T16:19:02;13.90;99.90
51655;DHT22;37732;53.106;7.030;2023-03-30T16:21:28;13.90;99.90
51655;DHT22;37732;53.106;7.030;2023-03-30T16:23:53;13.90;99.90
51655;DHT22;37732;53.106;7.030;2023-03-30T16:26:19;13.80;99.90
51655;DHT22;37732;53.106;7.030;2023-03-30T16:28:45;13.80;99.90
51655;DHT22;37732;53.106;7.030;2023-03-30T16:31:21;13.80;99.90
51655;DHT22;37732;53.106;7.030;2023-03-30T16:33:48;13.70;99.90
51655;DHT22;37732;53.106;7.030;2023-03-30T16:36:18;13.70;99.90
51655;DHT22;37732;53.106;7.030;2023-03-30T16:38:45;13.70;99.90
51655;DHT22;37732;53.106;7.030;2023-03-30T16:41:17;13.60;99.90
51655;DHT22;37732;53.106;7.030;2023-03-30T16:43:43;13.60;99.90
51655;DHT22;37732;53.106;7.030;2023-03-30T16:46:17;13.50;99.90
51655;DHT22;37732;53.106;7.030;2023-03-30T16:48:43;13.50;99.90
51655;DHT22;37732;53.106;7.030;2023-03-30T16:51:12;13.50;99.90
51655;DHT22;37732;53.106;7.030;2023-03-30T16:53:38;13.50;99.90
51655;DHT22;37732;53.106;7.030;2023-03-30T16:56:04;13.40;99.90
51655;DHT22;37732;53.106;7.030;2023-03-30T16:58:30;13.40;99.90
51655;DHT22;37732;53.106;7.030;2023-03-30T17:00:56;13.40;99.90
51655;DHT22;37732;53.106;7.030;2023-03-30T17:03:28;13.30;99.90
51655;DHT22;37732;53.106;7.030;2023-03-30T17:05:55;13.30;99.90
51655;DHT22;37732;53.106;7.030;2023-03-30T17:08:21;13.30;99.90
51655;DHT22;37732;53.106;7.030;2023-03-30T17:10:52;13.30;99.90
51655;DHT22;37732;53.106;7.030;2023-03-30T17:13:19;13.20;99.90
51655;DHT22;37732;53.106;7.030;2023-03-30T17:15:45;13.20;99.90
51655;DHT22;37732;53.106;7.030;2023-03-30T17:18:15;13.10;99.90
51655;DHT22;37732;53.106;7.030;2023-03-30T17:20:44;13.10;99.90
51655;DHT22;37732;53.106;7.030;2023-03-30T17:23:13;13.10;99.90
51655;DHT22;37732;53.106;7.030;2023-03-30T17:25:38;13.00;99.90
51655;DHT22;37732;53.106;7.030;2023-03-30T17:28:10;13.00;99.90
51655;DHT22;37732;53.106;7.030;2023-03-30T17:30:41;12.90;99.90
51655;DHT22;37732;53.106;7.030;2023-03-30T17:33:07;12.80;99.90
51655;DHT22;37732;53.106;7.030;2023-03-30T17:35:36;12.80;99.90
51655;DHT22;37732;53.106;7.030;2023-03-30T17:38:03;12.70;99.90
51655;DHT22;37732;53.106;7.030;2023-03-30T17:40:30;12.60;99.90
51655;DHT22;37732;53.106;7.030;2023-03-30T17:42:56;12.60;99.90
51655;DHT22;37732;53.106;7.030;2023-03-30T17:45:24;12.60;99.90
51655;DHT22;37732;53.106;7.030;2023-03-30T17:47:50;12.50;99.90
51655;DHT22;37732;53.106;7.030;2023-03-30T17:50:26;12.50;99.90
51655;DHT22;37732;53.106;7.030;2023-03-30T17:52:53;12.40;99.90
51655;DHT22;37732;53.106;7.030;2023-03-30T17:55:21;12.40;99.90
51655;DHT22;37732;53.106;7.030;2023-03-30T17:57:47;12.40;99.90
51655;DHT22;37732;53.106;7.030;2023-03-30T18:02:42;12.30;99.90
51655;DHT22;37732;53.106;7.030;2023-03-30T18:05:08;12.30;99.90
51655;DHT22;37732;53.106;7.030;2023-03-30T18:07:33;12.30;99.90
51655;DHT22;37732;53.106;7.030;2023-03-30T18:10:00;12.30;99.90
51655;DHT22;37732;53.106;7.030;2023-03-30T18:12:25;12.30;99.90
51655;DHT22;37732;53.106;7.030;2023-03-30T18:14:51;12.30;99.90
51655;DHT22;37732;53.106;7.030;2023-03-30T18:17:17;12.30;99.90
51655;DHT22;37732;53.106;7.030;2023-03-30T18:19:43;12.30;99.90
51655;DHT22;37732;53.106;7.030;2023-03-30T18:22:09;12.30;99.90
51655;DHT22;37732;53.106;7.030;2023-03-30T18:24:34;12.30;99.90
51655;DHT22;37732;53.106;7.030;2023-03-30T18:27:00;12.30;99.90
51655;DHT22;37732;53.106;7.030;2023-03-30T18:29:26;12.20;99.90
51655;DHT22;37732;53.106;7.030;2023-03-30T18:31:53;12.20;99.90
51655;DHT22;37732;53.106;7.030;2023-03-30T18:34:20;12.20;99.90
51655;DHT22;37732;53.106;7.030;2023-03-30T18:36:46;12.20;99.90
51655;DHT22;37732;53.106;7.030;2023-03-30T18:39:18;12.20;99.90